sensor_id;sensor_type;location;lat;lon;timestamp;pressure;altitude;pressure_sealevel;temperature;humidity
69570;BME280;56781;42.292;23.146;2022-11-20T00:01:32;94830.69;;;19.23;51.22
69570;BME280;56781;42.292;23.146;2022-11-20T00:04:02;94778.78;;;18.87;51.09
69570;BME280;56781;42.292;23.146;2022-11-20T00:06:29;94766.00;;;18.91;51.24
69570;BME280;56781;42.292;23.146;2022-11-20T00:08:59;94798.22;;;18.96;51.42
69570;BME280;56781;42.292;23.146;2022-11-20T00:11:29;94831.41;;;19.16;51.84
69570;BME280;56781;42.292;23.146;2022-11-20T00:14:01;94796.41;;;19.08;51.72
69570;BME280;56781;42.292;23.146;2022-11-20T00:16:31;94755.56;;;18.90;51.84
69570;BME280;56781;42.292;23.146;2022-11-20T00:19:01;94766.34;;;18.86;51.55
69570;BME280;56781;42.292;23.146;2022-11-20T00:21:29;94812.84;;;19.22;52.00
69570;BME280;56781;42.292;23.146;2022-11-20T00:23:57;94746.41;;;18.71;52.03
69570;BME280;56781;42.292;23.146;2022-11-20T00:26:25;94825.13;;;19.09;52.11
69570;BME280;56781;42.292;23.146;2022-11-20T00:28:54;94785.50;;;19.00;50.95
69570;BME280;56781;42.292;23.146;2022-11-20T00:31:27;94802.59;;;19.04;51.45
69570;BME280;56781;42.292;23.146;2022-11-20T00:33:55;94820.25;;;19.25;51.07
69570;BME280;56781;42.292;23.146;2022-11-20T00:36:24;94767.09;;;18.83;51.04
69570;BME280;56781;42.292;23.146;2022-11-20T00:38:53;94786.41;;;19.15;49.71
69570;BME280;56781;42.292;23.146;2022-11-20T00:41:21;94832.44;;;19.45;49.66
69570;BME280;56781;42.292;23.146;2022-11-20T00:43:52;94769.44;;;19.22;49.60
69570;BME280;56781;42.292;23.146;2022-11-20T00:46:21;94762.41;;;19.17;49.21
69570;BME280;56781;42.292;23.146;2022-11-20T00:48:51;94776.41;;;19.23;49.90
69570;BME280;56781;42.292;23.146;2022-11-20T00:51:21;94770.88;;;19.09;50.51
69570;BME280;56781;42.292;23.146;2022-11-20T00:53:49;94812.56;;;19.34;50.43
69570;BME280;56781;42.292;23.146;2022-11-20T00:56:19;94762.31;;;19.07;50.13
69570;BME280;56781;42.292;23.146;2022-11-20T00:58:48;94825.88;;;19.46;49.77
69570;BME280;56781;42.292;23.146;2022-11-20T01:01:18;94811.47;;;19.42;49.99
69570;BME280;56781;42.292;23.146;2022-11-20T01:03:47;94810.69;;;19.38;50.68
69570;BME280;56781;42.292;23.146;2022-11-20T01:08:48;94745.28;;;19.10;49.47
69570;BME280;56781;42.292;23.146;2022-11-20T01:11:35;94788.72;;;19.13;50.69
69570;BME280;56781;42.292;23.146;2022-11-20T01:14:05;94747.41;;;18.90;50.86
69570;BME280;56781;42.292;23.146;2022-11-20T01:16:37;94757.66;;;19.07;50.54
69570;BME280;56781;42.292;23.146;2022-11-20T01:19:10;94748.59;;;18.92;50.90
69570;BME280;56781;42.292;23.146;2022-11-20T01:21:45;94793.88;;;19.22;51.10
69570;BME280;56781;42.292;23.146;2022-11-20T01:24:15;94765.34;;;19.01;51.06
69570;BME280;56781;42.292;23.146;2022-11-20T01:26:47;94782.16;;;19.14;51.20
69570;BME280;56781;42.292;23.146;2022-11-20T01:29:23;94747.75;;;18.85;50.62
69570;BME280;56781;42.292;23.146;2022-11-20T01:31:51;94706.94;;;18.74;51.07
69570;BME280;56781;42.292;23.146;2022-11-20T01:34:20;94768.53;;;19.11;51.50
69570;BME280;56781;42.292;23.146;2022-11-20T01:36:49;94691.66;;;18.58;50.94
69570;BME280;56781;42.292;23.146;2022-11-20T01:39:21;94739.78;;;19.02;51.01
69570;BME280;56781;42.292;23.146;2022-11-20T01:41:54;94717.28;;;18.98;50.63
69570;BME280;56781;42.292;23.146;2022-11-20T01:44:50;94740.59;;;19.07;51.35
69570;BME280;56781;42.292;23.146;2022-11-20T01:50:09;94679.19;;;18.84;50.86
69570;BME280;56781;42.292;23.146;2022-11-20T01:52:54;94679.72;;;18.63;51.04
69570;BME280;56781;42.292;23.146;2022-11-20T01:55:29;94724.31;;;19.03;50.59
69570;BME280;56781;42.292;23.146;2022-11-20T01:57:58;94653.38;;;18.64;50.79
69570;BME280;56781;42.292;23.146;2022-11-20T02:00:30;94637.84;;;18.60;50.73
69570;BME280;56781;42.292;23.146;2022-11-20T02:03:11;94705.56;;;18.91;50.43
69570;BME280;56781;42.292;23.146;2022-11-20T02:05:45;94693.50;;;18.85;50.49
69570;BME280;56781;42.292;23.146;2022-11-20T02:08:15;94685.28;;;18.77;51.97
69570;BME280;56781;42.292;23.146;2022-11-20T02:10:42;94719.22;;;18.98;51.08
69570;BME280;56781;42.292;23.146;2022-11-20T02:13:10;94722.78;;;19.06;50.67
69570;BME280;56781;42.292;23.146;2022-11-20T02:15:57;94700.72;;;18.73;51.49
69570;BME280;56781;42.292;23.146;2022-11-20T02:18:34;94727.38;;;19.01;51.58
69570;BME280;56781;42.292;23.146;2022-11-20T02:21:43;94724.13;;;18.85;51.76
69570;BME280;56781;42.292;23.146;2022-11-20T02:24:19;94676.63;;;18.65;51.66
69570;BME280;56781;42.292;23.146;2022-11-20T02:26:54;94683.19;;;18.64;52.58
69570;BME280;56781;42.292;23.146;2022-11-20T02:32:25;94699.78;;;18.58;52.37
69570;BME280;56781;42.292;23.146;2022-11-20T02:35:09;94730.91;;;18.72;54.02
69570;BME280;56781;42.292;23.146;2022-11-20T02:37:38;94738.28;;;18.71;53.86
69570;BME280;56781;42.292;23.146;2022-11-20T02:40:07;94738.34;;;18.75;53.57
69570;BME280;56781;42.292;23.146;2022-11-20T02:42:36;94686.59;;;18.20;54.05
69570;BME280;56781;42.292;23.146;2022-11-20T02:45:10;94707.19;;;18.28;54.03
69570;BME280;56781;42.292;23.146;2022-11-20T02:47:41;94766.59;;;18.74;53.14
69570;BME280;56781;42.292;23.146;2022-11-20T02:50:08;94706.63;;;18.45;53.41
69570;BME280;56781;42.292;23.146;2022-11-20T02:52:43;94767.66;;;18.66;53.50
69570;BME280;56781;42.292;23.146;2022-11-20T02:55:12;94730.66;;;18.47;53.38
69570;BME280;56781;42.292;23.146;2022-11-20T02:57:43;94754.31;;;18.50;53.77
69570;BME280;56781;42.292;23.146;2022-11-20T03:00:11;94709.41;;;18.19;54.15
69570;BME280;56781;42.292;23.146;2022-11-20T03:02:38;94749.72;;;18.24;55.77
69570;BME280;56781;42.292;23.146;2022-11-20T03:05:06;94742.09;;;18.03;57.07
69570;BME280;56781;42.292;23.146;2022-11-20T03:07:33;94786.97;;;18.30;55.99
69570;BME280;56781;42.292;23.146;2022-11-20T03:10:12;94766.03;;;18.27;55.00
69570;BME280;56781;42.292;23.146;2022-11-20T03:12:43;94763.84;;;18.40;53.73
69570;BME280;56781;42.292;23.146;2022-11-20T03:15:13;94765.25;;;18.27;54.33
69570;BME280;56781;42.292;23.146;2022-11-20T03:17:40;94782.31;;;18.31;54.77
69570;BME280;56781;42.292;23.146;2022-11-20T03:20:09;94816.28;;;18.51;54.33
69570;BME280;56781;42.292;23.146;2022-11-20T03:22:36;94782.44;;;18.38;53.39
69570;BME280;56781;42.292;23.146;2022-11-20T03:25:13;94788.66;;;18.42;53.59
69570;BME280;56781;42.292;23.146;2022-11-20T03:27:43;94762.13;;;18.25;54.61
69570;BME280;56781;42.292;23.146;2022-11-20T03:30:11;94805.44;;;18.51;53.81
69570;BME280;56781;42.292;23.146;2022-11-20T03:32:45;94832.94;;;18.53;54.29
69570;BME280;56781;42.292;23.146;2022-11-20T03:35:12;94825.47;;;18.43;54.77
69570;BME280;56781;42.292;23.146;2022-11-20T03:37:40;94836.72;;;18.45;54.59
69570;BME280;56781;42.292;23.146;2022-11-20T03:40:08;94752.22;;;17.79;55.38
69570;BME280;56781;42.292;23.146;2022-11-20T03:42:35;94871.31;;;18.55;55.23
69570;BME280;56781;42.292;23.146;2022-11-20T03:45:24;94855.78;;;18.52;55.61
69570;BME280;56781;42.292;23.146;2022-11-20T03:47:51;94851.41;;;18.44;56.39
69570;BME280;56781;42.292;23.146;2022-11-20T03:50:18;94857.88;;;18.36;56.91
69570;BME280;56781;42.292;23.146;2022-11-20T03:52:46;94770.06;;;17.84;56.83
69570;BME280;56781;42.292;23.146;2022-11-20T03:55:14;94816.06;;;18.07;57.51
69570;BME280;56781;42.292;23.146;2022-11-20T03:57:41;94805.66;;;17.86;58.15
69570;BME280;56781;42.292;23.146;2022-11-20T04:00:28;94820.78;;;17.87;59.67
69570;BME280;56781;42.292;23.146;2022-11-20T04:03:01;94830.94;;;17.93;60.38
69570;BME280;56781;42.292;23.146;2022-11-20T04:05:34;94766.19;;;17.35;60.44
69570;BME280;56781;42.292;23.146;2022-11-20T04:08:03;94865.25;;;17.86;60.94
69570;BME280;56781;42.292;23.146;2022-11-20T04:10:33;94862.38;;;17.75;62.93
69570;BME280;56781;42.292;23.146;2022-11-20T04:13:02;94820.28;;;17.12;66.71
69570;BME280;56781;42.292;23.146;2022-11-20T04:15:29;94867.53;;;16.99;68.43
69570;BME280;56781;42.292;23.146;2022-11-20T04:18:03;94837.84;;;16.63;68.21
69570;BME280;56781;42.292;23.146;2022-11-20T04:20:30;94869.63;;;16.86;68.11
69570;BME280;56781;42.292;23.146;2022-11-20T04:22:57;94874.81;;;16.95;68.19
69570;BME280;56781;42.292;23.146;2022-11-20T04:25:24;94844.75;;;16.61;69.36
69570;BME280;56781;42.292;23.146;2022-11-20T04:27:54;94881.44;;;16.78;71.82
69570;BME280;56781;42.292;23.146;2022-11-20T04:30:21;94886.13;;;16.46;75.72
69570;BME280;56781;42.292;23.146;2022-11-20T04:32:48;94845.19;;;15.92;78.65
69570;BME280;56781;42.292;23.146;2022-11-20T04:35:17;94874.81;;;15.89;79.98
69570;BME280;56781;42.292;23.146;2022-11-20T04:37:55;94883.41;;;15.79;80.62
69570;BME280;56781;42.292;23.146;2022-11-20T04:40:45;94825.25;;;15.34;80.93
69570;BME280;56781;42.292;23.146;2022-11-20T04:43:20;94835.50;;;15.28;81.52
69570;BME280;56781;42.292;23.146;2022-11-20T04:45:59;94881.63;;;15.55;82.50
69570;BME280;56781;42.292;23.146;2022-11-20T04:48:28;94854.19;;;15.21;84.37
69570;BME280;56781;42.292;23.146;2022-11-20T04:51:07;94821.69;;;14.85;84.48
69570;BME280;56781;42.292;23.146;2022-11-20T04:53:50;94858.09;;;15.07;85.17
69570;BME280;56781;42.292;23.146;2022-11-20T04:56:20;94838.47;;;14.95;84.35
69570;BME280;56781;42.292;23.146;2022-11-20T04:59:00;94849.75;;;15.13;83.52
69570;BME280;56781;42.292;23.146;2022-11-20T05:01:31;94827.81;;;15.14;81.85
69570;BME280;56781;42.292;23.146;2022-11-20T05:04:03;94819.66;;;15.11;81.27
69570;BME280;56781;42.292;23.146;2022-11-20T05:06:36;94819.19;;;15.08;82.07
69570;BME280;56781;42.292;23.146;2022-11-20T05:09:05;94895.81;;;15.51;82.45
69570;BME280;56781;42.292;23.146;2022-11-20T05:11:39;94841.56;;;15.09;82.80
69570;BME280;56781;42.292;23.146;2022-11-20T05:14:19;94892.31;;;15.35;84.54
69570;BME280;56781;42.292;23.146;2022-11-20T05:16:49;94876.88;;;15.20;87.13
69570;BME280;56781;42.292;23.146;2022-11-20T05:19:18;94860.09;;;15.11;85.39
69570;BME280;56781;42.292;23.146;2022-11-20T05:21:52;94835.41;;;14.80;85.95
69570;BME280;56781;42.292;23.146;2022-11-20T05:24:21;94794.66;;;14.41;86.31
69570;BME280;56781;42.292;23.146;2022-11-20T05:26:49;94889.00;;;14.98;86.45
69570;BME280;56781;42.292;23.146;2022-11-20T05:29:29;94844.56;;;14.63;86.46
69570;BME280;56781;42.292;23.146;2022-11-20T05:32:00;94844.31;;;14.69;86.05
69570;BME280;56781;42.292;23.146;2022-11-20T05:34:41;94859.91;;;14.75;86.14
69570;BME280;56781;42.292;23.146;2022-11-20T05:37:15;94875.66;;;14.89;87.17
69570;BME280;56781;42.292;23.146;2022-11-20T05:39:48;94884.41;;;14.98;86.07
69570;BME280;56781;42.292;23.146;2022-11-20T05:42:15;94848.78;;;14.77;86.53
69570;BME280;56781;42.292;23.146;2022-11-20T05:45:04;94823.56;;;14.69;85.58
69570;BME280;56781;42.292;23.146;2022-11-20T05:47:34;94844.41;;;14.72;85.75
69570;BME280;56781;42.292;23.146;2022-11-20T05:50:05;94873.63;;;14.98;86.47
69570;BME280;56781;42.292;23.146;2022-11-20T05:52:36;94823.19;;;14.71;87.01
69570;BME280;56781;42.292;23.146;2022-11-20T05:55:05;94853.25;;;14.85;85.56
69570;BME280;56781;42.292;23.146;2022-11-20T05:57:39;94888.34;;;15.17;85.09
69570;BME280;56781;42.292;23.146;2022-11-20T06:00:17;94858.69;;;15.17;83.00
69570;BME280;56781;42.292;23.146;2022-11-20T06:02:46;94879.81;;;15.43;82.68
69570;BME280;56781;42.292;23.146;2022-11-20T06:05:14;94804.28;;;15.27;79.82
69570;BME280;56781;42.292;23.146;2022-11-20T06:07:45;94811.41;;;15.67;76.60
69570;BME280;56781;42.292;23.146;2022-11-20T06:10:19;94856.22;;;16.19;75.52
69570;BME280;56781;42.292;23.146;2022-11-20T06:12:59;94732.13;;;15.56;72.57
69570;BME280;56781;42.292;23.146;2022-11-20T06:15:29;94807.88;;;16.14;72.16
69570;BME280;56781;42.292;23.146;2022-11-20T06:18:02;94862.66;;;16.50;71.91
69570;BME280;56781;42.292;23.146;2022-11-20T06:20:35;94860.31;;;16.48;73.21
69570;BME280;56781;42.292;23.146;2022-11-20T06:23:07;94791.06;;;16.21;73.62
69570;BME280;56781;42.292;23.146;2022-11-20T06:25:41;94807.09;;;16.13;74.72
69570;BME280;56781;42.292;23.146;2022-11-20T06:28:17;94793.16;;;16.11;74.71
69570;BME280;56781;42.292;23.146;2022-11-20T06:30:51;94790.97;;;16.17;75.00
69570;BME280;56781;42.292;23.146;2022-11-20T06:33:20;94774.47;;;16.03;74.14
69570;BME280;56781;42.292;23.146;2022-11-20T06:35:52;94856.13;;;16.51;74.56
69570;BME280;56781;42.292;23.146;2022-11-20T06:38:27;94790.97;;;16.17;72.76
69570;BME280;56781;42.292;23.146;2022-11-20T06:41:00;94804.06;;;16.34;72.64
69570;BME280;56781;42.292;23.146;2022-11-20T06:43:37;94807.38;;;16.28;73.89
69570;BME280;56781;42.292;23.146;2022-11-20T06:46:08;94849.00;;;16.43;75.05
69570;BME280;56781;42.292;23.146;2022-11-20T06:48:49;94825.25;;;16.32;72.90
69570;BME280;56781;42.292;23.146;2022-11-20T06:51:27;94850.44;;;16.56;72.00
69570;BME280;56781;42.292;23.146;2022-11-20T06:53:56;94812.81;;;16.47;69.90
69570;BME280;56781;42.292;23.146;2022-11-20T06:56:31;94862.56;;;16.81;70.76
69570;BME280;56781;42.292;23.146;2022-11-20T06:59:04;94781.75;;;16.57;68.17
69570;BME280;56781;42.292;23.146;2022-11-20T07:01:31;94815.47;;;16.82;68.01
69570;BME280;56781;42.292;23.146;2022-11-20T07:04:08;94816.19;;;16.79;67.23
69570;BME280;56781;42.292;23.146;2022-11-20T07:06:35;94813.97;;;16.85;65.63
69570;BME280;56781;42.292;23.146;2022-11-20T07:09:03;94858.84;;;17.09;66.12
69570;BME280;56781;42.292;23.146;2022-11-20T07:11:36;94892.63;;;17.38;65.36
69570;BME280;56781;42.292;23.146;2022-11-20T07:14:10;94856.41;;;17.23;65.96
69570;BME280;56781;42.292;23.146;2022-11-20T07:16:43;94898.13;;;17.22;69.13
69570;BME280;56781;42.292;23.146;2022-11-20T07:19:11;94816.81;;;16.73;70.33
69570;BME280;56781;42.292;23.146;2022-11-20T07:21:39;94893.03;;;16.98;71.61
69570;BME280;56781;42.292;23.146;2022-11-20T07:24:06;94828.25;;;16.47;71.85
69570;BME280;56781;42.292;23.146;2022-11-20T07:26:34;94851.72;;;16.43;73.01
69570;BME280;56781;42.292;23.146;2022-11-20T07:29:03;94874.34;;;16.73;72.51
69570;BME280;56781;42.292;23.146;2022-11-20T07:31:31;94870.25;;;16.79;70.41
69570;BME280;56781;42.292;23.146;2022-11-20T07:34:01;94857.91;;;16.62;71.71
69570;BME280;56781;42.292;23.146;2022-11-20T07:36:28;94846.88;;;16.52;73.02
69570;BME280;56781;42.292;23.146;2022-11-20T07:38:58;94888.41;;;16.79;72.98
69570;BME280;56781;42.292;23.146;2022-11-20T07:41:25;94871.91;;;16.49;72.76
69570;BME280;56781;42.292;23.146;2022-11-20T07:43:52;94895.31;;;16.60;74.47
69570;BME280;56781;42.292;23.146;2022-11-20T07:46:23;94879.97;;;16.29;76.77
69570;BME280;56781;42.292;23.146;2022-11-20T07:48:57;94901.59;;;16.29;78.32
69570;BME280;56781;42.292;23.146;2022-11-20T07:51:26;94915.13;;;16.49;78.67
69570;BME280;56781;42.292;23.146;2022-11-20T07:53:55;94898.97;;;16.17;79.96
69570;BME280;56781;42.292;23.146;2022-11-20T07:56:31;94915.53;;;16.31;80.40
69570;BME280;56781;42.292;23.146;2022-11-20T07:58:59;94895.31;;;16.25;80.42
69570;BME280;56781;42.292;23.146;2022-11-20T08:01:32;94904.56;;;16.24;80.03
69570;BME280;56781;42.292;23.146;2022-11-20T08:04:20;94898.00;;;16.25;80.61
69570;BME280;56781;42.292;23.146;2022-11-20T08:06:57;94892.03;;;16.16;80.18
69570;BME280;56781;42.292;23.146;2022-11-20T08:09:30;94889.75;;;16.18;79.84
69570;BME280;56781;42.292;23.146;2022-11-20T08:12:00;94847.69;;;16.01;78.88
69570;BME280;56781;42.292;23.146;2022-11-20T08:14:46;94859.44;;;16.09;76.68
69570;BME280;56781;42.292;23.146;2022-11-20T08:17:20;94851.25;;;16.05;76.42
69570;BME280;56781;42.292;23.146;2022-11-20T08:19:50;94891.50;;;16.26;78.87
69570;BME280;56781;42.292;23.146;2022-11-20T08:22:28;94847.03;;;15.88;81.21
69570;BME280;56781;42.292;23.146;2022-11-20T08:24:58;94869.84;;;15.75;82.99
69570;BME280;56781;42.292;23.146;2022-11-20T08:27:26;94864.56;;;15.35;86.23
69570;BME280;56781;42.292;23.146;2022-11-20T08:29:57;94864.50;;;15.03;87.88
69570;BME280;56781;42.292;23.146;2022-11-20T08:32:24;94890.34;;;15.20;86.60
69570;BME280;56781;42.292;23.146;2022-11-20T08:34:56;94922.22;;;15.58;85.85
69570;BME280;56781;42.292;23.146;2022-11-20T08:37:24;94930.00;;;15.76;86.86
69570;BME280;56781;42.292;23.146;2022-11-20T08:39:53;94870.44;;;15.52;87.84
69570;BME280;56781;42.292;23.146;2022-11-20T08:42:23;94887.63;;;15.32;87.07
69570;BME280;56781;42.292;23.146;2022-11-20T08:44:50;94921.72;;;15.40;87.95
69570;BME280;56781;42.292;23.146;2022-11-20T08:47:20;94911.25;;;15.23;89.50
69570;BME280;56781;42.292;23.146;2022-11-20T08:49:51;94961.94;;;15.45;91.92
69570;BME280;56781;42.292;23.146;2022-11-20T08:52:24;94947.94;;;15.40;92.36
69570;BME280;56781;42.292;23.146;2022-11-20T08:54:52;94875.38;;;15.06;93.58
69570;BME280;56781;42.292;23.146;2022-11-20T08:57:23;94930.19;;;15.55;91.94
69570;BME280;56781;42.292;23.146;2022-11-20T08:59:54;94884.97;;;15.20;92.47
69570;BME280;56781;42.292;23.146;2022-11-20T09:02:32;94914.88;;;15.43;90.83
69570;BME280;56781;42.292;23.146;2022-11-20T09:05:01;94884.19;;;15.19;91.17
69570;BME280;56781;42.292;23.146;2022-11-20T09:07:32;94923.28;;;15.41;91.92
69570;BME280;56781;42.292;23.146;2022-11-20T09:10:03;94931.28;;;15.38;91.39
69570;BME280;56781;42.292;23.146;2022-11-20T09:12:50;94859.72;;;14.96;88.97
69570;BME280;56781;42.292;23.146;2022-11-20T09:15:21;94833.53;;;14.97;85.91
69570;BME280;56781;42.292;23.146;2022-11-20T09:17:56;94853.50;;;15.24;84.79
69570;BME280;56781;42.292;23.146;2022-11-20T09:20:27;94879.97;;;15.34;86.47
69570;BME280;56781;42.292;23.146;2022-11-20T09:23:00;94910.09;;;15.52;88.13
69570;BME280;56781;42.292;23.146;2022-11-20T09:25:27;94887.63;;;15.32;89.23
69570;BME280;56781;42.292;23.146;2022-11-20T09:27:56;94929.16;;;15.59;88.66
69570;BME280;56781;42.292;23.146;2022-11-20T09:30:24;94876.06;;;15.32;87.16
69570;BME280;56781;42.292;23.146;2022-11-20T09:32:54;94874.22;;;15.36;88.36
69570;BME280;56781;42.292;23.146;2022-11-20T09:35:30;94882.97;;;15.17;89.41
69570;BME280;56781;42.292;23.146;2022-11-20T09:38:03;94870.94;;;15.14;90.21
69570;BME280;56781;42.292;23.146;2022-11-20T09:40:49;94875.72;;;15.05;90.96
69570;BME280;56781;42.292;23.146;2022-11-20T09:46:29;94903.84;;;15.64;89.32
69570;BME280;56781;42.292;23.146;2022-11-20T09:49:26;94833.31;;;15.49;88.46
69570;BME280;56781;42.292;23.146;2022-11-20T09:52:01;94814.09;;;15.51;89.00
69570;BME280;56781;42.292;23.146;2022-11-20T09:54:38;94856.94;;;16.00;85.04
69570;BME280;56781;42.292;23.146;2022-11-20T09:57:21;94795.75;;;15.88;86.27
69570;BME280;56781;42.292;23.146;2022-11-20T10:00:04;94828.19;;;16.08;84.06
69570;BME280;56781;42.292;23.146;2022-11-20T10:05:47;94807.53;;;16.15;84.83
69570;BME280;56781;42.292;23.146;2022-11-20T10:08:21;94808.25;;;16.32;83.68
69570;BME280;56781;42.292;23.146;2022-11-20T10:11:20;94775.97;;;16.20;79.29
69570;BME280;56781;42.292;23.146;2022-11-20T10:20:29;94817.59;;;16.93;78.65
69570;BME280;56781;42.292;23.146;2022-11-20T10:26:41;94731.97;;;16.58;77.15
69570;BME280;56781;42.292;23.146;2022-11-20T10:29:15;94766.81;;;16.82;74.19
69570;BME280;56781;42.292;23.146;2022-11-20T10:31:50;94813.94;;;17.24;73.22
69570;BME280;56781;42.292;23.146;2022-11-20T10:34:35;94776.66;;;17.14;73.23
69570;BME280;56781;42.292;23.146;2022-11-20T10:37:13;94777.44;;;17.14;72.53
69570;BME280;56781;42.292;23.146;2022-11-20T10:39:59;94765.66;;;17.03;69.90
69570;BME280;56781;42.292;23.146;2022-11-20T10:42:43;94816.53;;;17.40;69.99
69570;BME280;56781;42.292;23.146;2022-11-20T10:48:10;94799.09;;;17.37;70.16
69570;BME280;56781;42.292;23.146;2022-11-20T10:50:51;94753.53;;;17.16;68.68
69570;BME280;56781;42.292;23.146;2022-11-20T10:53:31;94788.19;;;17.34;69.07
69570;BME280;56781;42.292;23.146;2022-11-20T10:56:34;94797.25;;;17.45;69.47
69570;BME280;56781;42.292;23.146;2022-11-20T11:01:57;94795.72;;;17.21;67.95
69570;BME280;56781;42.292;23.146;2022-11-20T11:04:37;94785.06;;;17.09;70.33
69570;BME280;56781;42.292;23.146;2022-11-20T11:07:16;94865.09;;;17.33;70.61
69570;BME280;56781;42.292;23.146;2022-11-20T11:09:53;94815.72;;;16.58;75.27
69570;BME280;56781;42.292;23.146;2022-11-20T11:12:22;94845.34;;;16.00;79.51
69570;BME280;56781;42.292;23.146;2022-11-20T11:14:54;94873.88;;;15.37;84.54
69570;BME280;56781;42.292;23.146;2022-11-20T11:17:25;94907.22;;;14.60;86.92
69570;BME280;56781;42.292;23.146;2022-11-20T11:20:19;94944.34;;;14.18;89.28
69570;BME280;56781;42.292;23.146;2022-11-20T11:22:54;94885.47;;;13.80;91.31
69570;BME280;56781;42.292;23.146;2022-11-20T11:25:30;94861.22;;;13.30;91.61
69570;BME280;56781;42.292;23.146;2022-11-20T11:30:58;94855.75;;;13.06;93.09
69570;BME280;56781;42.292;23.146;2022-11-20T11:33:30;94872.56;;;13.15;94.26
69570;BME280;56781;42.292;23.146;2022-11-20T11:36:20;94846.41;;;12.91;96.24
69570;BME280;56781;42.292;23.146;2022-11-20T11:38:54;94857.50;;;13.02;97.39
69570;BME280;56781;42.292;23.146;2022-11-20T11:41:28;94881.91;;;12.97;98.38
69570;BME280;56781;42.292;23.146;2022-11-20T11:44:17;94852.72;;;12.74;98.01
69570;BME280;56781;42.292;23.146;2022-11-20T11:47:10;94894.84;;;12.82;97.97
69570;BME280;56781;42.292;23.146;2022-11-20T11:49:43;94952.03;;;13.04;97.68
69570;BME280;56781;42.292;23.146;2022-11-20T11:55:42;94914.88;;;12.64;100.00
69570;BME280;56781;42.292;23.146;2022-11-20T12:04:43;94958.22;;;12.54;100.00
69570;BME280;56781;42.292;23.146;2022-11-20T12:10:44;94893.84;;;12.24;100.00
69570;BME280;56781;42.292;23.146;2022-11-20T12:15:53;94879.19;;;12.42;100.00
69570;BME280;56781;42.292;23.146;2022-11-20T12:18:22;94856.41;;;12.49;100.00
69570;BME280;56781;42.292;23.146;2022-11-20T12:26:38;94849.72;;;13.21;100.00
69570;BME280;56781;42.292;23.146;2022-11-20T12:29:46;94831.44;;;13.48;100.00
69570;BME280;56781;42.292;23.146;2022-11-20T12:38:52;94812.63;;;13.85;97.56
69570;BME280;56781;42.292;23.146;2022-11-20T12:50:40;94791.44;;;14.36;94.24
69570;BME280;56781;42.292;23.146;2022-11-20T12:56:46;94782.56;;;14.35;94.36
69570;BME280;56781;42.292;23.146;2022-11-20T13:02:37;94798.16;;;14.42;95.63
69570;BME280;56781;42.292;23.146;2022-11-20T13:05:21;94782.50;;;14.19;93.78
69570;BME280;56781;42.292;23.146;2022-11-20T13:07:54;94847.13;;;14.60;93.98
69570;BME280;56781;42.292;23.146;2022-11-20T13:10:42;94797.63;;;14.24;93.97
69570;BME280;56781;42.292;23.146;2022-11-20T13:16:28;94779.91;;;14.23;92.25
69570;BME280;56781;42.292;23.146;2022-11-20T13:18:54;94787.63;;;14.25;93.84
69570;BME280;56781;42.292;23.146;2022-11-20T13:21:34;94782.84;;;14.18;94.43
69570;BME280;56781;42.292;23.146;2022-11-20T13:29:35;94758.41;;;14.11;93.54
69570;BME280;56781;42.292;23.146;2022-11-20T13:34:52;94808.56;;;14.56;93.62
69570;BME280;56781;42.292;23.146;2022-11-20T13:40:26;94757.94;;;14.49;92.19
69570;BME280;56781;42.292;23.146;2022-11-20T13:43:34;94749.16;;;14.65;90.74
69570;BME280;56781;42.292;23.146;2022-11-20T13:46:05;94720.81;;;14.55;89.50
69570;BME280;56781;42.292;23.146;2022-11-20T13:48:46;94727.41;;;14.57;89.55
69570;BME280;56781;42.292;23.146;2022-11-20T13:51:57;94766.41;;;14.92;90.19
69570;BME280;56781;42.292;23.146;2022-11-20T13:57:42;94725.41;;;14.54;90.47
69570;BME280;56781;42.292;23.146;2022-11-20T14:00:23;94733.06;;;14.52;91.69
69570;BME280;56781;42.292;23.146;2022-11-20T14:06:13;94726.41;;;14.22;93.69
69570;BME280;56781;42.292;23.146;2022-11-20T14:08:46;94719.78;;;14.19;93.95
69570;BME280;56781;42.292;23.146;2022-11-20T14:11:24;94706.19;;;14.00;93.91
69570;BME280;56781;42.292;23.146;2022-11-20T14:13:58;94686.81;;;14.22;83.26
69570;BME280;56781;42.292;23.146;2022-11-20T14:16:27;94749.38;;;15.03;79.77
69570;BME280;56781;42.292;23.146;2022-11-20T14:18:57;94717.72;;;15.00;79.41
69570;BME280;56781;42.292;23.146;2022-11-20T14:21:28;94697.88;;;15.08;76.96
69570;BME280;56781;42.292;23.146;2022-11-20T14:24:09;94744.75;;;15.51;75.88
69570;BME280;56781;42.292;23.146;2022-11-20T14:26:44;94715.78;;;15.33;76.59
69570;BME280;56781;42.292;23.146;2022-11-20T14:29:14;94732.22;;;15.43;76.97
69570;BME280;56781;42.292;23.146;2022-11-20T14:31:45;94737.03;;;15.18;83.45
69570;BME280;56781;42.292;23.146;2022-11-20T14:34:25;94713.25;;;14.60;87.96
69570;BME280;56781;42.292;23.146;2022-11-20T14:37:10;94706.44;;;14.51;87.38
69570;BME280;56781;42.292;23.146;2022-11-20T14:39:48;94710.09;;;14.30;88.01
69570;BME280;56781;42.292;23.146;2022-11-20T14:42:23;94684.31;;;14.29;88.00
69570;BME280;56781;42.292;23.146;2022-11-20T14:44:54;94693.44;;;14.40;88.62
69570;BME280;56781;42.292;23.146;2022-11-20T14:47:26;94733.75;;;14.65;88.79
69570;BME280;56781;42.292;23.146;2022-11-20T14:49:56;94693.00;;;14.23;88.17
69570;BME280;56781;42.292;23.146;2022-11-20T14:52:31;94707.47;;;14.18;88.69
69570;BME280;56781;42.292;23.146;2022-11-20T14:54:59;94738.50;;;14.28;87.16
69570;BME280;56781;42.292;23.146;2022-11-20T14:57:29;94699.00;;;14.04;83.78
69570;BME280;56781;42.292;23.146;2022-11-20T15:02:45;94699.47;;;14.22;82.21
69570;BME280;56781;42.292;23.146;2022-11-20T15:05:18;94706.38;;;14.35;81.09